Time;durP1;ratioP1;P1;durP2;ratioP2;P2;SDS_P1;SDS_P2;PMS_P1;PMS_P2;Temp;Humidity;BMP_temperature;BMP_pressure;BME280_temperature;BME280_humidity;BME280_pressure;Samples;Min_cycle;Max_cycle;Signal;HPM_P1;HPM_P2
2022/03/01 00:02:16;;;;;;;18.00;13.98;;;;;;;;;;4987622;28;20038;-69
2022/03/01 00:04:41;;;;;;;15.68;13.65;;;;;;;;;;4986542;28;20034;-69
2022/03/01 00:07:07;;;;;;;19.65;14.43;;;;;;;;;;4987369;28;20038;-69
2022/03/01 00:09:34;;;;;;;18.00;14.93;;;;;;;;;;4988512;28;20031;-69
2022/03/01 00:12:00;;;;;;;19.60;14.70;;;;;;;;;;5024840;23;20340;-70
2022/03/01 00:14:25;;;;;;;16.52;14.55;;;;;;;;;;5026277;28;20067;-70
2022/03/01 00:16:51;;;;;;;18.20;14.68;;;;;;;;;;5022997;28;20395;-70
2022/03/01 00:19:17;;;;;;;17.40;14.88;;;;;;;;;;5024734;28;20119;-71
2022/03/01 00:21:42;;;;;;;15.38;13.43;;;;;;;;;;5023912;28;20105;-70
2022/03/01 00:24:08;;;;;;;17.85;13.90;;;;;;;;;;5024584;28;20044;-70
2022/03/01 00:26:34;;;;;;;21.17;14.85;;;;;;;;;;5024080;28;20120;-70
2022/03/01 00:28:59;;;;;;;17.38;14.38;;;;;;;;;;5019994;28;20706;-70
2022/03/01 00:31:25;;;;;;;16.70;14.90;;;;;;;;;;5011516;28;20033;-70
2022/03/01 00:33:51;;;;;;;18.67;14.38;;;;;;;;;;5024681;28;20045;-70
2022/03/01 00:36:17;;;;;;;18.35;14.88;;;;;;;;;;5024922;28;20037;-71
2022/03/01 00:38:42;;;;;;;18.25;13.98;;;;;;;;;;5025882;28;20083;-70
2022/03/01 00:41:08;;;;;;;18.20;14.48;;;;;;;;;;5028537;28;20692;-71
2022/03/01 00:43:33;;;;;;;14.90;12.43;;;;;;;;;;5025538;28;20048;-70
2022/03/01 00:45:59;;;;;;;17.88;14.40;;;;;;;;;;5025866;28;20048;-71
2022/03/01 00:48:25;;;;;;;17.85;14.77;;;;;;;;;;5026369;28;20419;-71
2022/03/01 00:50:50;;;;;;;22.13;15.80;;;;;;;;;;5024377;28;20443;-70
2022/03/01 00:53:16;;;;;;;18.48;14.40;;;;;;;;;;5020649;28;20060;-70
2022/03/01 00:55:42;;;;;;;19.17;14.82;;;;;;;;;;5025447;28;20120;-71
2022/03/01 00:58:08;;;;;;;20.17;14.88;;;;;;;;;;5027666;28;20061;-70
2022/03/01 01:00:34;;;;;;;23.98;14.93;;;;;;;;;;5021581;28;20037;-70
2022/03/01 01:03:00;;;;;;;17.70;14.77;;;;;;;;;;5023664;28;20091;-71
2022/03/01 01:05:26;;;;;;;16.77;14.55;;;;;;;;;;5024700;28;20124;-71
2022/03/01 01:07:52;;;;;;;16.95;14.95;;;;;;;;;;5030289;28;20133;-70
2022/03/01 01:10:19;;;;;;;19.45;15.32;;;;;;;;;;5004886;28;20229;-71
2022/03/01 01:12:45;;;;;;;20.67;15.38;;;;;;;;;;5004079;28;20038;-70
2022/03/01 01:15:12;;;;;;;20.83;16.02;;;;;;;;;;5020990;28;20096;-70
2022/03/01 01:17:37;;;;;;;24.58;16.48;;;;;;;;;;5028143;28;20029;-70
2022/03/01 01:20:06;;;;;;;22.38;15.63;;;;;;;;;;5025154;28;20044;-70
2022/03/01 01:22:40;;;;;;;18.03;15.73;;;;;;;;;;5021107;28;20068;-70
2022/03/01 01:25:19;;;;;;;16.23;14.35;;;;;;;;;;5022009;28;20059;-70
2022/03/01 01:27:47;;;;;;;16.38;14.15;;;;;;;;;;5007800;28;20037;-70
2022/03/01 01:30:16;;;;;;;14.77;13.27;;;;;;;;;;5029712;28;21032;-70
2022/03/01 01:32:43;;;;;;;13.80;12.57;;;;;;;;;;5029730;28;20029;-70
2022/03/01 01:35:11;;;;;;;18.58;15.98;;;;;;;;;;5036352;28;20033;-71
2022/03/01 01:37:37;;;;;;;20.02;15.88;;;;;;;;;;5011401;28;20202;-70
2022/03/01 01:40:06;;;;;;;18.25;14.80;;;;;;;;;;5029307;28;20232;-70
2022/03/01 01:42:31;;;;;;;19.23;15.80;;;;;;;;;;5027089;28;20033;-71
2022/03/01 01:44:57;;;;;;;22.58;15.73;;;;;;;;;;5029812;28;20549;-70
2022/03/01 01:47:22;;;;;;;17.27;13.23;;;;;;;;;;5028114;28;20034;-70
2022/03/01 01:49:48;;;;;;;13.65;12.48;;;;;;;;;;5027720;28;20095;-70
2022/03/01 01:52:14;;;;;;;16.58;14.88;;;;;;;;;;5023130;28;20022;-70
2022/03/01 01:54:40;;;;;;;15.57;13.80;;;;;;;;;;5027884;28;20045;-70
2022/03/01 01:57:18;;;;;;;14.30;12.68;;;;;;;;;;5028878;28;20068;-70
2022/03/01 01:59:44;;;;;;;22.45;15.02;;;;;;;;;;4993459;28;20408;-70
2022/03/01 02:02:12;;;;;;;14.82;13.43;;;;;;;;;;5028430;28;20041;-70
2022/03/01 02:04:37;;;;;;;18.95;14.60;;;;;;;;;;5027075;28;20039;-70
2022/03/01 02:07:03;;;;;;;15.85;14.32;;;;;;;;;;5009231;28;20314;-70
2022/03/01 02:09:29;;;;;;;22.55;14.80;;;;;;;;;;5029875;28;20037;-71
2022/03/01 02:11:55;;;;;;;16.48;14.75;;;;;;;;;;5028350;28;20480;-71
2022/03/01 02:14:20;;;;;;;17.25;14.85;;;;;;;;;;5026257;28;20037;-71
2022/03/01 02:16:46;;;;;;;16.83;14.57;;;;;;;;;;5009043;28;20088;-71
2022/03/01 02:19:13;;;;;;;15.80;14.15;;;;;;;;;;5027440;28;20037;-71
2022/03/01 02:21:49;;;;;;;15.77;14.10;;;;;;;;;;5024227;28;20374;-70
2022/03/01 02:24:16;;;;;;;16.27;14.45;;;;;;;;;;5027149;28;20057;-70
2022/03/01 02:26:42;;;;;;;19.38;14.13;;;;;;;;;;5027772;28;20060;-71
2022/03/01 02:29:08;;;;;;;16.83;14.90;;;;;;;;;;5033271;28;20075;-71
2022/03/01 02:31:34;;;;;;;15.70;14.10;;;;;;;;;;5027626;28;20101;-70
2022/03/01 02:34:00;;;;;;;19.50;15.68;;;;;;;;;;5029643;28;20064;-70
2022/03/01 02:36:25;;;;;;;16.38;14.73;;;;;;;;;;5026780;28;20448;-71
2022/03/01 02:38:51;;;;;;;16.77;13.63;;;;;;;;;;5029780;28;20216;-71
2022/03/01 02:41:17;;;;;;;15.88;14.23;;;;;;;;;;5026685;28;20140;-71
2022/03/01 02:43:42;;;;;;;17.58;14.55;;;;;;;;;;5014206;28;20057;-70
2022/03/01 02:46:08;;;;;;;17.17;13.30;;;;;;;;;;5010195;28;20084;-70
2022/03/01 02:48:34;;;;;;;19.13;15.05;;;;;;;;;;5033214;28;20045;-70
2022/03/01 02:51:00;;;;;;;14.68;13.30;;;;;;;;;;4993908;28;20033;-70
2022/03/01 02:53:25;;;;;;;18.50;15.05;;;;;;;;;;5020462;28;20038;-70
2022/03/01 02:55:51;;;;;;;16.35;14.80;;;;;;;;;;5032063;28;20039;-70
2022/03/01 02:58:17;;;;;;;17.77;13.85;;;;;;;;;;5025302;28;20033;-70
2022/03/01 03:00:48;;;;;;;16.33;14.73;;;;;;;;;;5026754;28;20033;-71
2022/03/01 03:03:13;;;;;;;14.70;13.38;;;;;;;;;;5012645;28;20038;-70
2022/03/01 03:05:39;;;;;;;14.45;13.20;;;;;;;;;;5027803;28;20446;-70
2022/03/01 03:08:06;;;;;;;18.00;14.20;;;;;;;;;;5008911;28;20471;-70
2022/03/01 03:10:33;;;;;;;17.70;14.63;;;;;;;;;;5013425;28;20037;-70
2022/03/01 03:13:00;;;;;;;15.52;14.00;;;;;;;;;;5012211;28;20045;-71
2022/03/01 03:15:27;;;;;;;15.68;14.10;;;;;;;;;;5026362;28;20081;-70
2022/03/01 03:17:53;;;;;;;22.58;16.02;;;;;;;;;;5026568;28;20045;-70
2022/03/01 03:20:20;;;;;;;14.23;13.00;;;;;;;;;;5031190;28;20061;-70
2022/03/01 03:22:45;;;;;;;17.02;14.38;;;;;;;;;;5025097;28;20036;-70
2022/03/01 03:25:11;;;;;;;18.05;15.07;;;;;;;;;;5027904;28;20392;-71
2022/03/01 03:27:37;;;;;;;21.55;15.38;;;;;;;;;;5029212;28;20041;-71
2022/03/01 03:30:04;;;;;;;15.73;14.00;;;;;;;;;;4995325;28;20099;-71
2022/03/01 03:32:31;;;;;;;18.92;15.00;;;;;;;;;;5025157;28;20048;-71
2022/03/01 03:34:56;;;;;;;19.58;16.23;;;;;;;;;;5015274;28;20040;-71
2022/03/01 03:37:22;;;;;;;14.52;13.20;;;;;;;;;;5025578;28;20033;-70
2022/03/01 03:39:47;;;;;;;13.40;12.30;;;;;;;;;;5025704;28;20171;-71
2022/03/01 03:42:13;;;;;;;14.85;13.40;;;;;;;;;;5026708;28;20045;-71
2022/03/01 03:44:39;;;;;;;18.90;16.40;;;;;;;;;;5032250;28;20044;-70
2022/03/01 03:47:06;;;;;;;16.63;14.85;;;;;;;;;;5025843;28;20484;-71
2022/03/01 03:49:32;;;;;;;13.50;12.43;;;;;;;;;;5010645;28;20064;-71
2022/03/01 03:51:59;;;;;;;15.63;13.73;;;;;;;;;;5022328;28;20110;-71
2022/03/01 03:54:25;;;;;;;15.60;13.85;;;;;;;;;;5027842;28;20464;-71
2022/03/01 03:56:51;;;;;;;15.85;13.98;;;;;;;;;;5004369;28;20048;-71
2022/03/01 03:59:17;;;;;;;19.52;15.30;;;;;;;;;;5027223;28;20408;-71
2022/03/01 04:01:43;;;;;;;15.05;13.73;;;;;;;;;;5009844;28;20033;-71
2022/03/01 04:04:09;;;;;;;26.45;17.27;;;;;;;;;;5013213;28;20037;-71
2022/03/01 04:06:38;;;;;;;13.63;12.55;;;;;;;;;;5010349;28;20052;-71
2022/03/01 04:09:04;;;;;;;;;;;;;;;;;;5024765;28;20026;-71
2022/03/01 04:11:30;;;;;;;16.40;14.70;;;;;;;;;;5003185;28;19931;-71
2022/03/01 04:13:57;;;;;;;18.27;14.82;;;;;;;;;;5009154;28;20378;-71
2022/03/01 04:16:23;;;;;;;17.67;15.18;;;;;;;;;;5026179;28;20041;-71
2022/03/01 04:18:48;;;;;;;20.55;15.32;;;;;;;;;;5029207;28;20029;-71
2022/03/01 04:21:15;;;;;;;15.75;14.05;;;;;;;;;;5023464;28;20037;-71
2022/03/01 04:23:40;;;;;;;16.52;13.93;;;;;;;;;;5023468;28;20061;-71
2022/03/01 04:26:06;;;;;;;17.92;14.05;;;;;;;;;;5025496;28;20061;-71
2022/03/01 04:28:32;;;;;;;14.80;13.40;;;;;;;;;;5026092;28;20505;-71
2022/03/01 04:30:58;;;;;;;13.30;12.25;;;;;;;;;;5022783;28;20053;-72
2022/03/01 04:33:23;;;;;;;15.68;14.15;;;;;;;;;;5010706;28;20087;-71
2022/03/01 04:35:49;;;;;;;16.33;14.50;;;;;;;;;;5027190;28;20037;-71
2022/03/01 04:38:16;;;;;;;17.27;15.38;;;;;;;;;;5025155;28;20043;-71
2022/03/01 04:40:41;;;;;;;16.55;14.68;;;;;;;;;;5019666;28;20049;-71
2022/03/01 04:43:07;;;;;;;17.50;15.60;;;;;;;;;;5027732;28;20034;-71
2022/03/01 04:45:33;;;;;;;20.60;14.57;;;;;;;;;;5009176;28;20033;-72
2022/03/01 04:47:59;;;;;;;16.50;14.75;;;;;;;;;;5009103;28;20332;-71
2022/03/01 04:50:25;;;;;;;18.13;15.10;;;;;;;;;;5024454;28;20036;-72
2022/03/01 04:52:51;;;;;;;17.58;15.23;;;;;;;;;;5027805;28;20656;-72
2022/03/01 04:55:16;;;;;;;15.02;13.63;;;;;;;;;;5027261;28;20083;-71
2022/03/01 04:57:43;;;;;;;21.10;15.52;;;;;;;;;;5021615;28;20048;-71
2022/03/01 05:00:11;;;;;;;15.35;13.85;;;;;;;;;;5030887;28;20044;-72
2022/03/01 05:02:38;;;;;;;20.67;16.13;;;;;;;;;;5031622;28;20321;-71
2022/03/01 05:05:04;;;;;;;17.58;15.07;;;;;;;;;;5021589;28;20041;-72
2022/03/01 05:07:30;;;;;;;16.40;14.15;;;;;;;;;;5008530;28;20457;-72
2022/03/01 05:09:56;;;;;;;19.67;16.48;;;;;;;;;;5029499;28;20037;-71
2022/03/01 05:12:21;;;;;;;14.68;13.30;;;;;;;;;;5027520;28;20056;-72
2022/03/01 05:14:47;;;;;;;17.60;14.55;;;;;;;;;;5024899;28;20429;-72
2022/03/01 05:17:12;;;;;;;15.45;13.88;;;;;;;;;;5026860;28;20064;-72
2022/03/01 05:19:38;;;;;;;15.45;13.82;;;;;;;;;;5026904;28;20047;-72
2022/03/01 05:22:03;;;;;;;15.48;13.88;;;;;;;;;;5025213;28;20033;-72
2022/03/01 05:24:29;;;;;;;19.77;15.18;;;;;;;;;;5036569;28;20522;-72
2022/03/01 05:26:55;;;;;;;18.75;14.98;;;;;;;;;;5012451;28;20120;-72
2022/03/01 05:29:21;;;;;;;17.08;14.65;;;;;;;;;;5009797;28;20136;-71
2022/03/01 05:31:47;;;;;;;18.83;15.00;;;;;;;;;;5022667;28;20120;-72
2022/03/01 05:34:13;;;;;;;18.60;16.65;;;;;;;;;;5019456;28;20059;-72
2022/03/01 05:36:39;;;;;;;17.00;15.32;;;;;;;;;;5024796;28;21717;-72
2022/03/01 05:39:04;;;;;;;15.57;14.20;;;;;;;;;;5027155;28;20036;-72
2022/03/01 05:41:30;;;;;;;16.67;15.00;;;;;;;;;;5025547;28;20045;-72
2022/03/01 05:43:56;;;;;;;21.80;16.90;;;;;;;;;;4991224;28;20396;-72
2022/03/01 05:46:21;;;;;;;17.73;14.60;;;;;;;;;;5027044;28;20080;-72
2022/03/01 05:48:47;;;;;;;19.23;16.48;;;;;;;;;;5011281;28;20077;-72
2022/03/01 05:51:14;;;;;;;17.13;15.32;;;;;;;;;;5026513;28;20092;-72
2022/03/01 05:53:39;;;;;;;16.15;14.75;;;;;;;;;;5026797;28;20041;-72
2022/03/01 05:56:05;;;;;;;13.80;12.50;;;;;;;;;;5028837;28;20041;-70
2022/03/01 05:58:31;;;;;;;13.70;12.57;;;;;;;;;;5011843;28;20733;-69
2022/03/01 06:00:56;;;;;;;19.10;15.32;;;;;;;;;;5024117;28;20117;-69
2022/03/01 06:03:22;;;;;;;15.65;13.95;;;;;;;;;;5009832;28;20037;-69
2022/03/01 06:05:48;;;;;;;14.35;12.90;;;;;;;;;;5007479;28;20647;-69
2022/03/01 06:08:13;;;;;;;16.52;13.98;;;;;;;;;;5030020;28;20033;-70
2022/03/01 06:10:39;;;;;;;18.23;16.05;;;;;;;;;;5009422;28;20071;-69
2022/03/01 06:13:05;;;;;;;16.00;14.25;;;;;;;;;;5027706;28;20037;-69
2022/03/01 06:15:30;;;;;;;14.52;13.18;;;;;;;;;;5029011;28;21185;-69
2022/03/01 06:17:56;;;;;;;19.63;15.40;;;;;;;;;;5033099;28;20033;-69
2022/03/01 06:20:22;;;;;;;15.15;13.85;;;;;;;;;;5030156;28;20037;-69
2022/03/01 06:22:47;;;;;;;19.38;15.77;;;;;;;;;;5013024;28;20476;-69
2022/03/01 06:25:13;;;;;;;22.67;15.50;;;;;;;;;;5038116;28;20068;-68
2022/03/01 06:27:39;;;;;;;14.45;13.05;;;;;;;;;;5016234;28;20492;-69
2022/03/01 06:30:06;;;;;;;19.27;15.40;;;;;;;;;;5030569;28;20045;-69
2022/03/01 06:32:32;;;;;;;13.55;12.32;;;;;;;;;;5029568;28;20033;-69
2022/03/01 06:34:58;;;;;;;16.33;14.73;;;;;;;;;;5011963;28;20049;-69
2022/03/01 06:37:23;;;;;;;20.10;15.93;;;;;;;;;;5030134;28;20033;-69
2022/03/01 06:39:50;;;;;;;18.38;14.30;;;;;;;;;;5030176;28;20037;-69
2022/03/01 06:42:17;;;;;;;16.23;14.35;;;;;;;;;;5032100;28;20111;-69
2022/03/01 06:44:43;;;;;;;17.50;15.63;;;;;;;;;;5036009;28;20036;-69
2022/03/01 06:47:08;;;;;;;18.73;15.65;;;;;;;;;;5025444;28;20030;-69
2022/03/01 06:49:35;;;;;;;15.30;13.77;;;;;;;;;;5028899;28;20546;-69
2022/03/01 06:52:01;;;;;;;18.75;15.40;;;;;;;;;;5017573;28;20607;-69
2022/03/01 06:54:26;;;;;;;19.10;16.20;;;;;;;;;;5031533;28;20045;-70
2022/03/01 06:56:54;;;;;;;16.25;14.70;;;;;;;;;;5024675;28;20038;-69
2022/03/01 06:59:20;;;;;;;18.67;16.05;;;;;;;;;;5031255;28;20095;-69
2022/03/01 07:01:46;;;;;;;17.08;15.38;;;;;;;;;;5028167;28;20037;-69
2022/03/01 07:04:11;;;;;;;19.65;16.08;;;;;;;;;;5029324;28;20038;-69
2022/03/01 07:06:37;;;;;;;15.95;14.50;;;;;;;;;;5021338;28;20033;-69
2022/03/01 07:09:03;;;;;;;15.75;14.13;;;;;;;;;;5030986;28;20492;-69
2022/03/01 07:11:29;;;;;;;20.67;16.27;;;;;;;;;;4992116;28;20080;-69
2022/03/01 07:13:54;;;;;;;16.77;15.00;;;;;;;;;;5037437;28;20029;-70
2022/03/01 07:16:20;;;;;;;14.35;13.00;;;;;;;;;;4994167;28;20046;-69
2022/03/01 07:18:46;;;;;;;16.20;14.52;;;;;;;;;;5010291;28;20124;-69
2022/03/01 07:21:12;;;;;;;18.48;15.52;;;;;;;;;;5012937;28;20100;-69
2022/03/01 07:23:37;;;;;;;17.40;15.48;;;;;;;;;;5030751;28;20025;-69
2022/03/01 07:26:04;;;;;;;18.02;15.55;;;;;;;;;;5012743;28;20029;-69
2022/03/01 07:28:30;;;;;;;17.13;15.38;;;;;;;;;;5030067;28;20311;-70
2022/03/01 07:30:56;;;;;;;17.17;15.25;;;;;;;;;;5025795;28;20472;-70
2022/03/01 07:33:22;;;;;;;17.88;15.40;;;;;;;;;;5028731;28;20184;-68
2022/03/01 07:35:48;;;;;;;17.98;15.77;;;;;;;;;;5011761;28;20369;-69
2022/03/01 07:38:14;;;;;;;18.38;15.95;;;;;;;;;;5026893;28;20048;-69
2022/03/01 07:40:39;;;;;;;14.93;13.52;;;;;;;;;;5026700;28;20041;-69
2022/03/01 07:43:07;;;;;;;16.55;14.15;;;;;;;;;;5028964;28;20037;-69
2022/03/01 07:45:36;;;;;;;17.33;14.98;;;;;;;;;;5028791;28;20420;-69
2022/03/01 07:48:03;;;;;;;17.60;15.90;;;;;;;;;;5031898;28;20037;-69
2022/03/01 07:50:31;;;;;;;16.58;14.85;;;;;;;;;;4991888;28;20049;-68
2022/03/01 07:52:56;;;;;;;18.05;16.25;;;;;;;;;;5007210;28;20047;-69
2022/03/01 07:55:22;;;;;;;18.25;16.33;;;;;;;;;;5028530;28;20037;-69
2022/03/01 07:57:48;;;;;;;17.73;16.02;;;;;;;;;;5028089;28;20064;-69
2022/03/01 08:00:15;;;;;;;18.60;16.73;;;;;;;;;;5027151;28;20084;-69
2022/03/01 08:02:41;;;;;;;20.70;16.40;;;;;;;;;;5017056;28;20025;-69
2022/03/01 08:05:09;;;;;;;19.67;17.27;;;;;;;;;;5027530;28;20081;-69
2022/03/01 08:07:35;;;;;;;20.33;17.42;;;;;;;;;;5009739;28;20041;-69
2022/03/01 08:10:01;;;;;;;18.25;16.50;;;;;;;;;;5029456;28;20033;-69
2022/03/01 08:12:27;;;;;;;17.25;15.48;;;;;;;;;;5023552;28;20071;-69
2022/03/01 08:14:52;;;;;;;18.33;16.02;;;;;;;;;;5036000;28;20120;-69
2022/03/01 08:17:19;;;;;;;18.52;16.67;;;;;;;;;;5011863;28;20037;-69
2022/03/01 08:19:47;;;;;;;16.50;15.02;;;;;;;;;;5029550;28;20488;-69
2022/03/01 08:22:12;;;;;;;18.98;17.23;;;;;;;;;;5026520;28;20026;-69
2022/03/01 08:24:38;;;;;;;16.83;15.18;;;;;;;;;;5019372;28;20033;-69
2022/03/01 08:27:04;;;;;;;18.73;16.83;;;;;;;;;;5028602;28;20041;-70
2022/03/01 08:29:29;;;;;;;17.98;16.35;;;;;;;;;;5029606;28;20041;-69
2022/03/01 08:31:55;;;;;;;19.00;17.17;;;;;;;;;;5010246;28;20134;-69
2022/03/01 08:34:21;;;;;;;17.55;15.75;;;;;;;;;;5037447;28;20131;-69
2022/03/01 08:36:47;;;;;;;19.70;17.80;;;;;;;;;;5028544;28;20025;-69
2022/03/01 08:39:13;;;;;;;19.08;17.33;;;;;;;;;;5030195;28;20037;-69
2022/03/01 08:41:38;;;;;;;19.50;17.35;;;;;;;;;;5027985;28;20069;-70
2022/03/01 08:44:04;;;;;;;18.10;16.23;;;;;;;;;;5028571;28;20037;-70
2022/03/01 08:46:30;;;;;;;18.65;16.60;;;;;;;;;;5025609;28;20045;-69
2022/03/01 08:48:56;;;;;;;17.52;15.93;;;;;;;;;;5033787;28;20033;-70
2022/03/01 08:51:25;;;;;;;18.90;16.90;;;;;;;;;;5032697;28;20477;-69
2022/03/01 08:53:52;;;;;;;19.33;17.38;;;;;;;;;;5009730;28;20393;-70
2022/03/01 08:56:19;;;;;;;18.58;16.83;;;;;;;;;;5027491;28;20448;-70
2022/03/01 08:58:46;;;;;;;19.13;17.23;;;;;;;;;;5014057;28;20463;-69
2022/03/01 09:01:12;;;;;;;17.73;16.13;;;;;;;;;;5027153;28;20068;-69
2022/03/01 09:03:38;;;;;;;18.75;16.80;;;;;;;;;;5026901;28;20119;-69
2022/03/01 09:06:05;;;;;;;18.15;16.55;;;;;;;;;;5026474;28;20037;-69
2022/03/01 09:08:40;;;;;;;19.00;17.08;;;;;;;;;;5033945;28;20039;-68
2022/03/01 09:11:07;;;;;;;19.17;17.23;;;;;;;;;;5026547;28;20034;-68
2022/03/01 09:13:33;;;;;;;18.58;16.90;;;;;;;;;;5027166;28;20035;-68
2022/03/01 09:15:59;;;;;;;18.98;17.20;;;;;;;;;;5030329;28;20037;-69
2022/03/01 09:18:24;;;;;;;18.42;16.45;;;;;;;;;;5019547;28;20045;-69
2022/03/01 09:20:50;;;;;;;22.58;16.25;;;;;;;;;;5030217;28;20041;-69
2022/03/01 09:23:16;;;;;;;16.50;15.00;;;;;;;;;;5005194;28;20397;-69
2022/03/01 09:25:42;;;;;;;16.85;15.25;;;;;;;;;;5005985;28;20053;-69
2022/03/01 09:28:08;;;;;;;20.55;17.85;;;;;;;;;;5024086;28;20313;-68
2022/03/01 09:30:34;;;;;;;20.73;17.27;;;;;;;;;;5030020;28;20063;-69
2022/03/01 09:33:00;;;;;;;17.73;15.85;;;;;;;;;;5024256;28;20042;-69
2022/03/01 09:35:25;;;;;;;20.63;17.85;;;;;;;;;;5027448;28;20028;-69
2022/03/01 09:37:51;;;;;;;18.20;15.93;;;;;;;;;;5030271;28;20059;-69
2022/03/01 09:40:17;;;;;;;19.65;16.98;;;;;;;;;;5010446;28;20097;-69
2022/03/01 09:42:43;;;;;;;18.67;16.30;;;;;;;;;;5029827;28;20029;-70
2022/03/01 09:45:11;;;;;;;19.23;17.35;;;;;;;;;;5028629;28;20574;-70
2022/03/01 09:47:38;;;;;;;18.13;16.40;;;;;;;;;;5009278;28;20040;-70
2022/03/01 09:50:05;;;;;;;17.85;16.23;;;;;;;;;;5029950;28;20033;-70
2022/03/01 09:52:32;;;;;;;18.52;16.60;;;;;;;;;;5029824;28;20876;-69
2022/03/01 09:54:57;;;;;;;18.50;16.23;;;;;;;;;;5031324;28;20033;-70
2022/03/01 09:57:23;;;;;;;19.92;17.75;;;;;;;;;;5032221;28;20034;-70
2022/03/01 09:59:49;;;;;;;19.45;16.77;;;;;;;;;;5032645;28;20041;-70
2022/03/01 10:06:13;;;;;;;17.63;15.75;;;;;;;;;;5019556;28;20296;-70
2022/03/01 10:08:40;;;;;;;17.65;15.98;;;;;;;;;;5018416;28;20032;-70
2022/03/01 10:11:05;;;;;;;18.48;16.67;;;;;;;;;;5032074;28;20033;-70
2022/03/01 17:19:04;;;;;;;16.52;13.23;;;;;;;;;;5128209;27;20376;-67
2022/03/01 17:21:29;;;;;;;15.48;13.80;;;;;;;;;;5143940;27;20058;-68
2022/03/01 17:23:55;;;;;;;15.13;13.52;;;;;;;;;;5132077;27;20362;-68
2022/03/01 17:26:21;;;;;;;14.73;13.32;;;;;;;;;;5143706;27;20038;-68
2022/03/01 17:28:48;;;;;;;15.88;14.25;;;;;;;;;;5150806;27;20179;-69
2022/03/01 17:31:14;;;;;;;15.30;13.70;;;;;;;;;;5117447;27;20100;-67
2022/03/01 17:33:40;;;;;;;15.25;13.75;;;;;;;;;;5119667;27;20062;-68
2022/03/01 17:36:06;;;;;;;15.10;13.48;;;;;;;;;;5142400;27;20043;-67
2022/03/01 17:38:31;;;;;;;20.85;16.40;;;;;;;;;;5131958;27;20059;-69
2022/03/01 17:40:57;;;;;;;16.00;14.32;;;;;;;;;;5140275;27;20481;-68
2022/03/01 17:43:23;;;;;;;22.38;15.32;;;;;;;;;;5143945;27;20493;-68
2022/03/01 17:45:49;;;;;;;17.40;13.52;;;;;;;;;;5139880;27;20038;-67
2022/03/01 17:48:15;;;;;;;16.90;13.18;;;;;;;;;;5148315;27;20030;-68
2022/03/01 17:50:41;;;;;;;15.45;13.95;;;;;;;;;;5140313;27;20400;-67
2022/03/01 17:53:07;;;;;;;15.57;13.60;;;;;;;;;;5127585;27;20107;-67
2022/03/01 17:55:34;;;;;;;16.35;14.25;;;;;;;;;;5123944;27;20038;-67
2022/03/01 17:58:00;;;;;;;15.38;13.82;;;;;;;;;;5122849;27;20027;-67
2022/03/01 18:00:26;;;;;;;16.52;14.63;;;;;;;;;;5124103;27;20098;-67
2022/03/01 18:02:51;;;;;;;18.50;14.32;;;;;;;;;;5135942;27;20042;-66
2022/03/01 18:05:19;;;;;;;14.75;13.25;;;;;;;;;;5144580;27;20092;-67
2022/03/01 18:07:45;;;;;;;15.13;13.60;;;;;;;;;;5142305;27;20644;-67
2022/03/01 18:10:11;;;;;;;17.42;13.63;;;;;;;;;;5131303;27;20092;-67
2022/03/01 18:12:37;;;;;;;16.60;13.95;;;;;;;;;;5136641;27;20552;-67
2022/03/01 18:15:08;;;;;;;15.05;13.68;;;;;;;;;;5124664;27;20034;-67
2022/03/01 18:17:33;;;;;;;14.80;13.40;;;;;;;;;;5140613;27;20046;-66
2022/03/01 18:19:59;;;;;;;16.80;13.93;;;;;;;;;;5135889;27;20039;-67
2022/03/01 18:22:28;;;;;;;14.88;13.32;;;;;;;;;;5134720;27;20114;-67
2022/03/01 18:24:54;;;;;;;15.90;14.27;;;;;;;;;;5139457;27;20149;-67
2022/03/01 18:27:20;;;;;;;17.05;13.20;;;;;;;;;;5139577;27;20427;-67
2022/03/01 18:29:45;;;;;;;16.15;14.45;;;;;;;;;;5115101;27;20039;-67
2022/03/01 18:32:11;;;;;;;16.88;13.63;;;;;;;;;;5129238;27;20070;-68
2022/03/01 18:34:36;;;;;;;18.10;13.70;;;;;;;;;;5134394;27;20413;-68
2022/03/01 18:37:04;;;;;;;16.70;13.50;;;;;;;;;;5125672;27;20497;-67
2022/03/01 18:39:31;;;;;;;14.65;13.07;;;;;;;;;;5126272;27;20031;-67
2022/03/01 18:41:58;;;;;;;17.40;13.82;;;;;;;;;;5119434;27;20482;-67
2022/03/01 18:44:24;;;;;;;16.85;14.88;;;;;;;;;;5125318;27;20468;-68
2022/03/01 18:46:49;;;;;;;24.17;18.48;;;;;;;;;;5129973;27;20347;-67
2022/03/01 18:49:15;;;;;;;13.48;11.85;;;;;;;;;;5108555;27;20088;-66
2022/03/01 18:51:41;;;;;;;15.32;13.77;;;;;;;;;;5125784;27;20517;-67
2022/03/01 18:54:07;;;;;;;13.13;11.93;;;;;;;;;;5087323;27;20096;-67
2022/03/01 18:56:33;;;;;;;15.50;14.00;;;;;;;;;;5126367;27;20550;-67
2022/03/01 18:58:59;;;;;;;18.83;15.00;;;;;;;;;;5117381;27;20482;-67
2022/03/01 19:01:25;;;;;;;15.07;13.52;;;;;;;;;;5128570;27;20031;-68
2022/03/01 19:03:52;;;;;;;16.15;14.23;;;;;;;;;;5113826;27;20089;-66
2022/03/01 19:06:19;;;;;;;16.50;14.30;;;;;;;;;;5096979;27;20058;-67
2022/03/01 19:08:49;;;;;;;19.00;15.55;;;;;;;;;;5118452;27;20113;-66
2022/03/01 19:11:15;;;;;;;19.67;16.20;;;;;;;;;;5134868;27;20039;-67
2022/03/01 19:13:41;;;;;;;16.45;14.90;;;;;;;;;;5114694;27;20034;-66
2022/03/01 19:16:08;;;;;;;17.33;15.38;;;;;;;;;;5132967;27;20126;-67
2022/03/01 19:18:33;;;;;;;15.68;14.00;;;;;;;;;;5123761;27;20057;-67
2022/03/01 19:20:59;;;;;;;16.33;14.70;;;;;;;;;;5127141;27;20066;-67
2022/03/01 19:23:25;;;;;;;15.18;13.57;;;;;;;;;;5125377;27;20122;-67
2022/03/01 19:25:52;;;;;;;18.13;16.35;;;;;;;;;;5131775;27;20401;-67
2022/03/01 19:28:17;;;;;;;17.10;15.27;;;;;;;;;;5124195;27;20529;-67
2022/03/01 19:30:43;;;;;;;15.90;14.30;;;;;;;;;;5118444;27;20070;-67
2022/03/01 19:33:09;;;;;;;15.25;13.65;;;;;;;;;;5133686;27;20070;-67
2022/03/01 19:35:36;;;;;;;15.23;13.82;;;;;;;;;;5107256;27;20103;-67
2022/03/01 19:38:03;;;;;;;14.95;13.45;;;;;;;;;;5121643;27;20119;-67
2022/03/01 19:40:28;;;;;;;16.95;15.25;;;;;;;;;;5123927;27;20027;-67
2022/03/01 19:42:54;;;;;;;17.95;14.77;;;;;;;;;;5131740;27;20047;-67
2022/03/01 19:45:20;;;;;;;15.65;13.93;;;;;;;;;;5118930;27;20043;-67
2022/03/01 19:47:49;;;;;;;16.73;14.10;;;;;;;;;;5112378;27;20142;-67
2022/03/01 19:50:20;;;;;;;17.48;13.90;;;;;;;;;;5115268;27;20064;-67
2022/03/01 19:52:47;;;;;;;16.08;14.38;;;;;;;;;;5111892;27;20234;-66
2022/03/01 19:55:15;;;;;;;19.65;14.45;;;;;;;;;;5110639;27;20047;-67
2022/03/01 19:57:42;;;;;;;17.50;12.73;;;;;;;;;;5121395;27;20118;-67
2022/03/01 20:00:15;;;;;;;15.27;13.80;;;;;;;;;;5121855;27;20034;-67
2022/03/01 20:02:42;;;;;;;16.70;15.00;;;;;;;;;;5110795;27;20137;-67
2022/03/01 20:05:09;;;;;;;15.70;13.95;;;;;;;;;;5128618;27;20045;-67
2022/03/01 20:07:36;;;;;;;13.00;11.80;;;;;;;;;;5120389;27;20032;-66
2022/03/01 20:10:03;;;;;;;19.88;14.30;;;;;;;;;;5129068;27;20059;-66
2022/03/01 20:12:29;;;;;;;15.73;14.10;;;;;;;;;;5108581;27;20627;-67
2022/03/01 20:14:54;;;;;;;18.65;15.35;;;;;;;;;;5125501;27;20027;-67
2022/03/01 20:17:20;;;;;;;17.80;14.85;;;;;;;;;;5115802;27;20329;-67
2022/03/01 20:19:46;;;;;;;19.08;14.85;;;;;;;;;;5130904;27;20064;-67
2022/03/01 20:22:12;;;;;;;17.13;15.32;;;;;;;;;;5118074;27;20027;-67
2022/03/01 20:24:39;;;;;;;15.95;14.40;;;;;;;;;;5127666;27;20043;-68
2022/03/01 20:27:06;;;;;;;17.48;14.27;;;;;;;;;;5125495;27;20118;-67
2022/03/01 20:29:33;;;;;;;15.70;14.07;;;;;;;;;;5118744;27;20039;-67
2022/03/01 20:31:58;;;;;;;14.35;12.88;;;;;;;;;;5131658;27;20481;-67
2022/03/01 20:34:25;;;;;;;19.02;14.95;;;;;;;;;;5124019;27;20536;-67
2022/03/01 20:36:51;;;;;;;15.18;13.10;;;;;;;;;;5111012;27;20039;-66
2022/03/01 20:39:17;;;;;;;16.65;14.95;;;;;;;;;;5129646;27;20051;-67
2022/03/01 20:41:43;;;;;;;17.90;14.85;;;;;;;;;;5133796;27;20039;-66
2022/03/01 20:44:08;;;;;;;17.45;14.90;;;;;;;;;;5125629;27;20031;-67
2022/03/01 20:46:34;;;;;;;16.77;14.90;;;;;;;;;;5122237;27;20031;-67
2022/03/01 20:49:00;;;;;;;16.73;14.93;;;;;;;;;;5124694;27;20092;-67
2022/03/01 20:51:26;;;;;;;21.75;15.63;;;;;;;;;;5126291;27;20034;-67
2022/03/01 20:53:52;;;;;;;17.52;14.95;;;;;;;;;;5122961;27;20053;-66
2022/03/01 20:56:18;;;;;;;13.88;12.63;;;;;;;;;;5112614;27;20513;-67
2022/03/01 20:58:43;;;;;;;15.27;13.60;;;;;;;;;;5122743;27;20038;-67
2022/03/01 21:01:09;;;;;;;20.63;14.10;;;;;;;;;;5100272;27;20405;-66
2022/03/01 21:03:35;;;;;;;15.55;13.93;;;;;;;;;;5119025;27;20157;-67
2022/03/01 21:06:01;;;;;;;18.75;14.65;;;;;;;;;;5128658;27;20050;-67
2022/03/01 21:08:26;;;;;;;21.65;14.85;;;;;;;;;;5103096;27;20043;-67
2022/03/01 21:10:52;;;;;;;19.48;15.45;;;;;;;;;;5124262;27;20035;-66
2022/03/01 21:13:18;;;;;;;18.02;15.73;;;;;;;;;;5117405;27;20035;-67
2022/03/01 21:15:44;;;;;;;21.10;15.10;;;;;;;;;;5127064;27;20046;-68
2022/03/01 21:18:10;;;;;;;17.20;14.55;;;;;;;;;;5122337;27;20121;-67
2022/03/01 21:20:38;;;;;;;18.17;15.32;;;;;;;;;;5123780;27;20134;-67
2022/03/01 21:23:06;;;;;;;18.63;15.73;;;;;;;;;;5124440;27;20400;-66